GosportINWX Station Historical Data
 
Daily Summary for January 23, 2020 Units:  English    Metric   Both
Daily Weekly Monthly Yearly Custom
  Current: High: Low: Average:
Temperature: 39.2 °F 46.4 °F 33.1 °F 38.9 °F
Dew Point: 31.9 °F 31.9 °F 16.2 °F 19.3 °F
Humidity: 75% 75% 29.8% 46%
Wind Speed: 0mph 5.4mph 0mph 1.1mph
Wind Gust: 8.7mph 16.1mph - -
WindCalm - - SSE
Pressure: 29.89 in 30.10 in 29.89 in -
Precipitation: 0.00 in      
Historical Graphs
 
 
Tabular Data for January 23, 2020
Time Temperature Dew Point Pressure Wind Wind Speed Wind Gust Humidity Rainfall Rate (Hourly) solar
00:04 33.7 °F 17.7 °F 30.10 in SE 0.2 mph 6.1 mph 51.5% 0.00 in W/m2
00:09 33.8 °F 17.3 °F 30.10 in SE 1.7 mph 7.4 mph 50.3% 0.00 in W/m2
00:14 33.8 °F 17.1 °F 30.10 in SSE 1.2 mph 7.4 mph 50% 0.00 in W/m2
00:19 33.9 °F 16.7 °F 30.09 in SSW 1 mph 7.4 mph 49.1% 0.00 in W/m2
00:24 33.9 °F 16.7 °F 30.09 in SW 0.4 mph 7.4 mph 49% 0.00 in W/m2
00:29 34 °F 16.8 °F 30.09 in Calm   6.1 mph 49% 0.00 in W/m2
00:34 34 °F 16.8 °F 30.09 in WNW 1.1 mph 7.4 mph 49% 0.00 in W/m2
00:39 34 °F 16.5 °F 30.09 in NW 0.3 mph 7.4 mph 48.4% 0.00 in W/m2
00:44 34 °F 16.6 °F 30.08 in NW 0.8 mph 7.4 mph 48.7% 0.00 in W/m2
00:49 34 °F 16.3 °F 30.09 in WNW 1.9 mph 7.4 mph 48% 0.00 in W/m2
00:54 34.1 °F 16.4 °F 30.08 in WSW 0.3 mph 7.4 mph 48% 0.00 in W/m2
00:59 34 °F 16.3 °F 30.07 in SSE 0.6 mph 7.4 mph 48% 0.00 in W/m2
01:04 33.8 °F 16.2 °F 30.07 in Calm   6.1 mph 48% 0.00 in W/m2
01:09 33.7 °F 16.5 °F 30.08 in Calm   6.1 mph 48.9% 0.00 in W/m2
01:14 33.6 °F 16.9 °F 30.08 in NNE 0.5 mph 6.1 mph 50% 0.00 in W/m2
01:19 33.6 °F 16.9 °F 30.07 in NNE 0.8 mph 6.1 mph 50% 0.00 in W/m2
01:24 33.6 °F 16.9 °F 30.07 in North 0.1 mph 6.1 mph 50% 0.00 in W/m2
01:29 33.8 °F 16.2 °F 30.07 in NNW 0.6 mph 6.1 mph 48.1% 0.00 in W/m2
01:34 33.8 °F 16.2 °F 30.07 in WSW 0.5 mph 6.1 mph 48% 0.00 in W/m2
01:39 33.8 °F 16.2 °F 30.08 in Calm   6.1 mph 48% 0.00 in W/m2
01:44 33.7 °F 16.4 °F 30.07 in Calm   6.1 mph 48.5% 0.00 in W/m2
01:49 33.6 °F 16.8 °F 30.07 in NE 0.4 mph 6.1 mph 49.8% 0.00 in W/m2
01:54 33.7 °F 16.8 °F 30.07 in Calm   6.1 mph 49.6% 0.00 in W/m2
01:59 33.6 °F 16.9 °F 30.06 in NE 0.2 mph 6.1 mph 49.8% 0.00 in W/m2
02:04 33.6 °F 16.9 °F 30.06 in NE 0.4 mph 4.4 mph 50% 0.00 in W/m2
02:09 33.6 °F 16.9 °F 30.06 in Calm   4.4 mph 50% 0.00 in W/m2
02:14 33.6 °F 16.9 °F 30.06 in NNE 0.3 mph 4.4 mph 50% 0.00 in W/m2
02:19 33.6 °F 16.7 °F 30.07 in North 0.2 mph 6.1 mph 49.6% 0.00 in W/m2
02:24 33.8 °F 16.2 °F 30.07 in Calm   6.1 mph 48% 0.00 in W/m2
02:29 33.7 °F 16.4 °F 30.07 in Calm   6.1 mph 48.5% 0.00 in W/m2
02:34 33.6 °F 16.5 °F 30.07 in Calm   3.1 mph 49% 0.00 in W/m2
02:39 33.6 °F 16.6 °F 30.07 in North 0.5 mph 6.1 mph 49.1% 0.00 in W/m2
02:44 33.6 °F 16.9 °F 30.07 in North 0.3 mph 6.1 mph 50% 0.00 in W/m2
02:49 33.6 °F 16.9 °F 30.07 in Calm   6.1 mph 50% 0.00 in W/m2
02:54 33.8 °F 16.6 °F 30.07 in North 0.2 mph 4.4 mph 49.1% 0.00 in W/m2
02:59 33.8 °F 16.6 °F 30.07 in North 0.8 mph 4.4 mph 49% 0.00 in W/m2
03:04 34 °F 16.3 °F 30.07 in North 0.1 mph 4.4 mph 48% 0.00 in W/m2
03:09 34 °F 16.3 °F 30.07 in Calm   4.4 mph 48% 0.00 in W/m2
03:14 34.2 °F 16.5 °F 30.06 in Calm   3.1 mph 48% 0.00 in W/m2
03:19 34.2 °F 16.5 °F 30.06 in Calm   3.1 mph 48% 0.00 in W/m2
03:24 34 °F 16.8 °F 30.07 in Calm   3.1 mph 49% 0.00 in W/m2
03:29 33.9 °F 16.6 °F 30.07 in NE 0.6 mph 4.4 mph 48.6% 0.00 in W/m2
03:34 34 °F 16.3 °F 30.07 in NE 0.5 mph 4.4 mph 48% 0.00 in W/m2
03:39 34 °F 16.3 °F 30.06 in NE 0.1 mph 4.4 mph 48% 0.00 in W/m2
03:44 34 °F 16.3 °F 30.06 in Calm   4.4 mph 48% 0.00 in W/m2
03:49 33.8 °F 16.4 °F 30.06 in Calm   4.4 mph 48.6% 0.00 in W/m2
03:54 33.6 °F 16.9 °F 30.06 in NE 0.1 mph 3.1 mph 50% 0.00 in W/m2
03:59 33.5 °F 16.9 °F 30.06 in NE 0.6 mph 4.4 mph 50% 0.00 in W/m2
04:04 33.6 °F 16.9 °F 30.05 in NNE 0.2 mph 4.4 mph 50% 0.00 in W/m2
04:09 33.6 °F 16.9 °F 30.05 in North 0.2 mph 4.4 mph 50% 0.00 in W/m2
04:14 33.4 °F 17.1 °F 30.05 in Calm   4.4 mph 50.7% 0.00 in W/m2
04:19 33.3 °F 17.1 °F 30.05 in Calm   3.1 mph 51% 0.00 in W/m2
04:24 33.3 °F 17.5 °F 30.05 in Calm   3.1 mph 52% 0.00 in W/m2
04:29 33.1 °F 17.5 °F 30.05 in North 0.4 mph 3.1 mph 52.4% 0.00 in W/m2
04:34 33.1 °F 17.8 °F 30.05 in North 0.4 mph 6.1 mph 53% 0.00 in W/m2
04:39 33.2 °F 17.8 °F 30.05 in North 0.3 mph 6.1 mph 52.7% 0.00 in W/m2
04:44 33.4 °F 17.7 °F 30.05 in North 0.2 mph 6.1 mph 52% 0.00 in W/m2
04:49 33.4 °F 17.7 °F 30.05 in North 0.2 mph 4.4 mph 52% 0.00 in W/m2
04:54 33.6 °F 17.8 °F 30.05 in Calm   4.4 mph 52% 0.00 in W/m2
04:59 33.6 °F 17.8 °F 30.05 in Calm   3.1 mph 52% 0.00 in W/m2
05:04 33.6 °F 17.8 °F 30.05 in Calm   3.1 mph 52% 0.00 in W/m2
05:09 33.6 °F 17.8 °F 30.04 in Calm   1.3 mph 52% 0.00 in W/m2
05:14 33.4 °F 17.7 °F 30.04 in Calm   1.3 mph 52.1% 0.00 in W/m2
05:19 33.4 °F 18.1 °F 30.04 in Calm   1.3 mph 53% 0.00 in W/m2
05:24 33.4 °F 18.1 °F 30.04 in Calm   1.3 mph 53% 0.00 in W/m2
05:29 33.3 °F 18 °F 30.04 in Calm   1.3 mph 53% 0.00 in W/m2
05:34 33.3 °F 18 °F 30.05 in Calm   1.3 mph 53% 0.00 in W/m2
05:39 33.3 °F 18 °F 30.05 in Calm   1.3 mph 53% 0.00 in W/m2
05:44 33.3 °F 18.1 °F 30.04 in Calm   1.3 mph 53.2% 0.00 in W/m2
05:49 33.3 °F 18.4 °F 30.04 in NE 0.1 mph 3.1 mph 54% 0.00 in W/m2
05:54 33.3 °F 18.4 °F 30.04 in NE 0.3 mph 3.1 mph 54% 0.00 in W/m2
05:59 33.3 °F 18.4 °F 30.04 in Calm   3.1 mph 54% 0.00 in W/m2
06:04 33.2 °F 18.3 °F 30.03 in Calm   3.1 mph 54% 0.00 in W/m2
06:09 33.1 °F 18.2 °F 30.03 in Calm   1.3 mph 54% 0.00 in W/m2
06:14 33.1 °F 18.4 °F 30.03 in ENE 0.3 mph 4.4 mph 54.3% 0.00 in W/m2
06:19 33.3 °F 18.4 °F 30.03 in ENE 0.2 mph 4.4 mph 54% 0.00 in W/m2
06:24 33.4 °F 18.6 °F 30.04 in Calm   4.4 mph 54% 0.00 in W/m2
06:29 33.6 °F 18.3 °F 30.04 in ENE 0.2 mph 4.4 mph 53% 0.00 in W/m2
06:34 33.7 °F 18.1 °F 30.04 in East 0.8 mph 7.4 mph 52.4% 0.00 in W/m2
06:39 33.9 °F 18.1 °F 30.04 in SE 0.3 mph 7.4 mph 52% 0.00 in W/m2
06:44 34.1 °F 17.8 °F 30.03 in SSE 0.8 mph 7.4 mph 51% 0.00 in W/m2
06:49 34.2 °F 17.5 °F 30.03 in SSE 1 mph 6.1 mph 50.1% 0.00 in W/m2
06:54 34.3 °F 17.6 °F 30.03 in ESE 0.2 mph 6.1 mph 50% 0.00 in W/m2
06:59 34.3 °F 17.6 °F 30.03 in East 0.9 mph 6.1 mph 50% 0.00 in W/m2
07:04 34.3 °F 17.6 °F 30.03 in Calm   4.4 mph 50% 0.00 in W/m2
07:09 34.2 °F 17.5 °F 30.03 in Calm   4.4 mph 50% 0.00 in W/m2
07:14 34.2 °F 17.4 °F 30.03 in SE 0.7 mph 6.1 mph 50% 0.00 in W/m2
07:19 34.2 °F 17.4 °F 30.03 in SE 0.7 mph 6.1 mph 50% 0.00 in W/m2
07:24 34.2 °F 17.4 °F 30.03 in East 1.3 mph 6.1 mph 50% 0.00 in W/m2
07:29 34.2 °F 17.4 °F 30.03 in ENE 0.2 mph 6.1 mph 50% 0.00 in W/m2
07:34 34.2 °F 17.4 °F 30.03 in NNW 0.7 mph 6.1 mph 50% 0.00 in W/m2
07:39 34.2 °F 17.4 °F 30.03 in WNW 1.1 mph 6.1 mph 50% 0.00 in W/m2
07:44 34.2 °F 17.4 °F 30.03 in West 1.4 mph 6.1 mph 50% 0.00 in W/m2
07:49 34.3 °F 17.6 °F 30.03 in WSW 1.8 mph 7.4 mph 50% 0.00 in W/m2
07:54 34.3 °F 17.4 °F 30.03 in SW 0.4 mph 7.4 mph 49.7% 0.00 in W/m2
07:59 34.3 °F 17.4 °F 30.03 in SW 1 mph 7.4 mph 49.6% 0.00 in W/m2
08:04 34.3 °F 17.4 °F 30.03 in SW 1.3 mph 7.4 mph 49.5% 0.00 in W/m2
08:09 34.5 °F 17.8 °F 30.03 in South 1.5 mph 7.4 mph 50% 0.00 in W/m2
08:14 34.5 °F 17.4 °F 30.02 in South 1.4 mph 6.1 mph 49.2% 0.00 in W/m2
08:19 34.6 °F 17.7 °F 30.02 in SSE 2.2 mph 6.1 mph 49.7% 0.00 in W/m2
08:24 34.7 °F 17.9 °F 30.03 in SSE 0.6 mph 6.1 mph 50% 0.00 in W/m2
08:29 34.7 °F 17.9 °F 30.03 in South 0.9 mph 6.1 mph 50% 0.00 in W/m2
08:34 34.7 °F 17.6 °F 30.03 in South 0.4 mph 4.4 mph 49.1% 0.00 in W/m2
08:39 34.9 °F 17.6 °F 30.03 in SSW 1.3 mph 7.4 mph 49% 0.00 in W/m2
08:44 35 °F 17.7 °F 30.03 in SSW 2.3 mph 11.8 mph 49% 0.00 in W/m2
08:49 35.2 °F 17.5 °F 30.03 in South 3.4 mph 11.8 mph 48.2% 0.00 in W/m2
08:54 35.4 °F 17.7 °F 30.03 in SSE 1.8 mph 11.8 mph 48% 0.00 in W/m2
08:59 35.6 °F 17.1 °F 30.03 in SE 2.8 mph 10.5 mph 46.6% 0.00 in W/m2
09:04 35.6 °F 16.8 °F 30.03 in ESE 2.7 mph 10.5 mph 46% 0.00 in W/m2
09:09 35.7 °F 16.9 °F 30.03 in ESE 3 mph 10.5 mph 46% 0.00 in W/m2
09:14 35.9 °F 17.1 °F 30.03 in SE 2.2 mph 8.7 mph 46% 0.00 in W/m2
09:19 36 °F 17.2 °F 30.03 in SE 1.5 mph 8.7 mph 46% 0.00 in W/m2
09:24 36.1 °F 17.3 °F 30.03 in SE 1.5 mph 8.7 mph 46% 0.00 in W/m2
09:29 36.3 °F 17.5 °F 30.04 in SE 1.5 mph 7.4 mph 46% 0.00 in W/m2
09:34 36.5 °F 17.3 °F 30.04 in SE 1 mph 7.4 mph 45.4% 0.00 in W/m2
09:39 36.7 °F 17.3 °F 30.03 in SE 1.2 mph 7.4 mph 45.2% 0.00 in W/m2
09:44 36.8 °F 17.4 °F 30.03 in SSE 1.3 mph 7.4 mph 45% 0.00 in W/m2
09:49 37 °F 17.7 °F 30.03 in SSE 0.7 mph 7.4 mph 45.2% 0.00 in W/m2
09:54 37.3 °F 19.5 °F 30.03 in SSE 0.7 mph 7.4 mph 48.1% 0.00 in W/m2
09:59 37.7 °F 20.5 °F 30.04 in SE 1.3 mph 6.1 mph 49.6% 0.00 in W/m2
10:04 38 °F 20.6 °F 30.04 in ESE 0.8 mph 6.1 mph 49% 0.00 in W/m2
10:09 38.3 °F 20.4 °F 30.04 in SE 1.2 mph 8.7 mph 48.3% 0.00 in W/m2
10:14 38.6 °F 20.5 °F 30.04 in SSE 2.6 mph 8.7 mph 48% 0.00 in W/m2
10:19 38.8 °F 20.8 °F 30.03 in South 1.4 mph 8.7 mph 48% 0.00 in W/m2
10:24 39.1 °F 20.8 °F 30.03 in SE 1.1 mph 8.7 mph 47.5% 0.00 in W/m2
10:29 39.6 °F 20.6 °F 30.04 in SE 3.4 mph 8.7 mph 46.3% 0.00 in W/m2
10:34 39.9 °F 20.8 °F 30.04 in SSE 2.3 mph 8.7 mph 46% 0.00 in W/m2
10:39 40.1 °F 21 °F 30.04 in SE 2.2 mph 8.7 mph 46% 0.00 in W/m2
10:44 40.3 °F 21 °F 30.04 in ESE 3.4 mph 10.5 mph 45.8% 0.00 in W/m2
10:49 40.4 °F 20.7 °F 30.03 in SE 2 mph 10.5 mph 45% 0.00 in W/m2
10:54 40.5 °F 20.8 °F 30.04 in SSE 3.2 mph 10.5 mph 45% 0.00 in W/m2
10:59 40.5 °F 20.8 °F 30.04 in SSE 2.9 mph 8.7 mph 45% 0.00 in W/m2
11:04 40.5 °F 20.8 °F 30.03 in SE 2.6 mph 8.7 mph 45% 0.00 in W/m2
11:09 40.6 °F 20.9 °F 30.04 in ESE 2.3 mph 8.7 mph 45% 0.00 in W/m2
11:14 40.8 °F 21.1 °F 30.04 in SE 3.4 mph 10.5 mph 44.9% 0.00 in W/m2
11:19 41.1 °F 20.3 °F 30.03 in SE 1.9 mph 10.5 mph 43.1% 0.00 in W/m2
11:24 41.3 °F 20.7 °F 30.03 in SE 1.9 mph 10.5 mph 43.5% 0.00 in W/m2
11:29 41.5 °F 20.7 °F 30.03 in SE 2.8 mph 8.7 mph 43% 0.00 in W/m2
11:34 41.7 °F 20.8 °F 30.03 in SSE 3.4 mph 8.7 mph 43% 0.00 in W/m2
11:39 42 °F 21.1 °F 30.03 in SSE 2.1 mph 8.7 mph 43% 0.00 in W/m2
11:44 42.4 °F 21.3 °F 30.03 in ESE 4.7 mph 13.5 mph 42.8% 0.00 in W/m2
11:49 42.7 °F 19.8 °F 30.03 in SSE 3.5 mph 13.5 mph 39.5% 0.00 in W/m2
11:54 43.2 °F 19 °F 30.02 in South 4.1 mph 14.8 mph 37.6% 0.00 in W/m2
11:59 43.4 °F 17.8 °F 30.02 in South 5.4 mph 14.8 mph 35.4% 0.00 in W/m2
12:04 43.6 °F 17.4 °F 30.02 in SSE 4.3 mph 14.8 mph 34.5% 0.00 in W/m2
12:09 43.7 °F 16.7 °F 30.02 in SSE 4.6 mph 14.8 mph 33.3% 0.00 in W/m2
12:14 43.9 °F 16.6 °F 30.01 in SE 4.1 mph 13.5 mph 33% 0.00 in W/m2
12:19 44.1 °F 16.9 °F 30.01 in SSE 4.1 mph 13.5 mph 33.2% 0.00 in W/m2
12:24 44.1 °F 17.4 °F 30.00 in SSE 3.2 mph 11.8 mph 33.8% 0.00 in W/m2
12:29 44.2 °F 18.1 °F 30.00 in SSE 1.3 mph 11.8 mph 34.7% 0.00 in W/m2
12:34 44.5 °F 17.5 °F 30.01 in South 2.1 mph 10.5 mph 33.5% 0.00 in W/m2
12:39 44.7 °F 17.7 °F 30.00 in SW 3.5 mph 11.8 mph 33.5% 0.00 in W/m2
12:44 44.8 °F 17.3 °F 29.99 in South 5.3 mph 11.8 mph 32.8% 0.00 in W/m2
12:49 44.6 °F 16.7 °F 29.99 in South 2.7 mph 11.8 mph 32.3% 0.00 in W/m2
12:54 44.7 °F 17.1 °F 29.99 in SSE 2.6 mph 11.8 mph 32.8% 0.00 in W/m2
12:59 44.8 °F 17.7 °F 29.99 in South 2.7 mph 8.7 mph 33.4% 0.00 in W/m2
13:04 44.8 °F 18.1 °F 29.98 in South 2.7 mph 8.7 mph 34% 0.00 in W/m2
13:09 44.9 °F 18 °F 29.98 in SW 3.1 mph 8.7 mph 33.8% 0.00 in W/m2
13:14 45.1 °F 17.5 °F 29.98 in SSW 3.6 mph 11.8 mph 32.8% 0.00 in W/m2
13:19 45.1 °F 17.4 °F 29.98 in South 3.6 mph 11.8 mph 32.5% 0.00 in W/m2
13:24 45.2 °F 17.1 °F 29.98 in South 1.7 mph 11.8 mph 32% 0.00 in W/m2
13:29 45.3 °F 17.7 °F 29.98 in SSW 1.4 mph 11.8 mph 32.7% 0.00 in W/m2
13:34 45.5 °F 18 °F 29.98 in South 3.5 mph 11.8 mph 33% 0.00 in W/m2
13:39 45.6 °F 18.2 °F 29.97 in South 2 mph 11.8 mph 33.1% 0.00 in W/m2
13:44 45.7 °F 18.2 °F 29.97 in South 1.8 mph 11.8 mph 33% 0.00 in W/m2
13:49 45.7 °F 18.2 °F 29.97 in SW 2.3 mph 10.5 mph 33% 0.00 in W/m2
13:54 45.7 °F 18.1 °F 29.97 in SW 1.7 mph 10.5 mph 32.8% 0.00 in W/m2
13:59 45.7 °F 18 °F 29.97 in SW 4.1 mph 13.5 mph 32.7% 0.00 in W/m2
14:04 45.7 °F 18.1 °F 29.96 in SSW 1.6 mph 13.5 mph 32.8% 0.00 in W/m2
14:09 45.9 °F 18.3 °F 29.96 in SSW 1.2 mph 13.5 mph 33% 0.00 in W/m2
14:14 46 °F 18.4 °F 29.95 in SSW 1.2 mph 7.4 mph 32.9% 0.00 in W/m2
14:19 46 °F 17.9 °F 29.95 in South 0.7 mph 7.4 mph 32.1% 0.00 in W/m2
14:24 46.1 °F 18.6 °F 29.95 in Calm   4.4 mph 33% 0.00 in W/m2
14:29 46.3 °F 19.5 °F 29.95 in WSW 0.4 mph 4.4 mph 34.1% 0.00 in W/m2
14:34 46.4 °F 20.2 °F 29.95 in West 1.1 mph 6.1 mph 35% 0.00 in W/m2
14:39 46.4 °F 19.4 °F 29.95 in WSW 2.5 mph 7.4 mph 33.8% 0.00 in W/m2
14:44 46.4 °F 19.3 °F 29.96 in WSW 1.5 mph 8.7 mph 33.8% 0.00 in W/m2
14:49 46.4 °F 19.1 °F 29.96 in SSW 3 mph 8.7 mph 33.4% 0.00 in W/m2
14:54 46.4 °F 19 °F 29.96 in SSE 2.7 mph 8.7 mph 33.3% 0.00 in W/m2
14:59 46.4 °F 18.8 °F 29.96 in South 2.2 mph 8.7 mph 33% 0.00 in W/m2
15:04 46.4 °F 18.8 °F 29.96 in South 2.7 mph 8.7 mph 33% 0.00 in W/m2
15:09 46.3 °F 17.4 °F 29.96 in South 1.9 mph 8.7 mph 31.3% 0.00 in W/m2
15:14 46.1 °F 16.2 °F 29.96 in SSW 1.5 mph 7.4 mph 29.8% 0.00 in W/m2
15:19 46 °F 16.4 °F 29.96 in SSW 1.9 mph 8.7 mph 30.1% 0.00 in W/m2
15:24 45.9 °F 16.9 °F 29.96 in SSW 0.4 mph 8.7 mph 31% 0.00 in W/m2
15:29 45.9 °F 16.9 °F 29.95 in South 1.5 mph 8.7 mph 31% 0.00 in W/m2
15:34 45.9 °F 16.9 °F 29.95 in Calm   7.4 mph 31% 0.00 in W/m2
15:39 45.9 °F 17.5 °F 29.95 in South 0.9 mph 7.4 mph 31.8% 0.00 in W/m2
15:44 45.9 °F 17.6 °F 29.94 in SSE 0.4 mph 6.1 mph 32% 0.00 in W/m2
15:49 45.9 °F 17.6 °F 29.95 in East 0.4 mph 6.1 mph 32% 0.00 in W/m2
15:54 45.9 °F 18 °F 29.95 in Calm   4.4 mph 32.6% 0.00 in W/m2
15:59 45.8 °F 19 °F 29.95 in Calm   4.4 mph 34.1% 0.00 in W/m2
16:04 45.6 °F 20.2 °F 29.95 in Calm   1.3 mph 36.1% 0.00 in W/m2
16:09 45.5 °F 20.1 °F 29.95 in Calm   1.3 mph 36% 0.00 in W/m2
16:14 45.5 °F 20.6 °F 29.95 in East 0.2 mph 4.4 mph 36.8% 0.00 in W/m2
16:19 45.7 °F 20.5 °F 29.95 in East 0.2 mph 4.4 mph 36.4% 0.00 in W/m2
16:24 45.7 °F 20.7 °F 29.94 in Calm   4.4 mph 36.7% 0.00 in W/m2
16:29 45.7 °F 20.4 °F 29.94 in East 0.7 mph 4.4 mph 36.3% 0.00 in W/m2
16:34 45.6 °F 20.4 °F 29.94 in Calm   4.4 mph 36.4% 0.00 in W/m2
16:39 45.4 °F 21 °F 29.94 in ENE 0.2 mph 6.1 mph 37.6% 0.00 in W/m2
16:44 45.2 °F 20.9 °F 29.94 in ENE 0.2 mph 6.1 mph 37.6% 0.00 in W/m2
16:49 45.1 °F 20.8 °F 29.94 in ENE 0.4 mph 6.1 mph 37.6% 0.00 in W/m2
16:54 45.1 °F 19.9 °F 29.93 in ENE 0.1 mph 4.4 mph 36.2% 0.00 in W/m2
16:59 45 °F 20.6 °F 29.93 in ENE 1.1 mph 4.4 mph 37.6% 0.00 in W/m2
17:04 45 °F 20.2 °F 29.93 in Calm   4.4 mph 37% 0.00 in W/m2
17:09 44.9 °F 19.8 °F 29.93 in Calm   4.4 mph 36.5% 0.00 in W/m2
17:14 44.6 °F 19.6 °F 29.93 in Calm   4.4 mph 36.6% 0.00 in W/m2
17:19 44.5 °F 20.2 °F 29.94 in ENE 0.5 mph 6.1 mph 37.6% 0.00 in W/m2
17:24 44.3 °F 19.9 °F 29.93 in ESE 0.9 mph 6.1 mph 37.4% 0.00 in W/m2
17:29 44.1 °F 20.3 °F 29.94 in SE 0.4 mph 6.1 mph 38.2% 0.00 in W/m2
17:34 43.9 °F 19.8 °F 29.94 in SSE 1.7 mph 8.7 mph 37.9% 0.00 in W/m2
17:39 43.9 °F 19.2 °F 29.93 in SSE 0.4 mph 8.7 mph 36.9% 0.00 in W/m2
17:44 43.9 °F 19.3 °F 29.93 in Calm   8.7 mph 37% 0.00 in W/m2
17:49 43.7 °F 19.8 °F 29.93 in Calm   6.1 mph 38.2% 0.00 in W/m2
17:54 43.3 °F 20.6 °F 29.93 in Calm   1.3 mph 40% 0.00 in W/m2
17:59 42.9 °F 21.2 °F 29.92 in Calm   3.1 mph 41.6% 0.00 in W/m2
18:04 42.7 °F 21.3 °F 29.93 in East 0.4 mph 4.4 mph 42.1% 0.00 in W/m2
18:09 42.5 °F 21.6 °F 29.93 in ESE 0.9 mph 6.1 mph 43% 0.00 in W/m2
18:14 42.4 °F 21.5 °F 29.93 in SSE 0.3 mph 7.4 mph 43% 0.00 in W/m2
18:19 42.4 °F 21.8 °F 29.93 in SSE 1.2 mph 10.5 mph 43.6% 0.00 in W/m2
18:24 42.6 °F 22.9 °F 29.92 in SE 2.4 mph 10.5 mph 45.3% 0.00 in W/m2
18:29 42.6 °F 23.3 °F 29.92 in SE 0.5 mph 10.5 mph 46% 0.00 in W/m2
18:34 42.6 °F 23.7 °F 29.92 in Calm   8.7 mph 46.7% 0.00 in W/m2
18:39 42.4 °F 24 °F 29.92 in SSE 0.4 mph 4.4 mph 47.6% 0.00 in W/m2
18:44 42.2 °F 24.2 °F 29.92 in Calm   4.4 mph 48.7% 0.00 in W/m2
18:49 41.9 °F 24.6 °F 29.92 in Calm   4.4 mph 50% 0.00 in W/m2
18:54 41.7 °F 25.2 °F 29.93 in Calm   3.1 mph 51.6% 0.00 in W/m2
18:59 41.7 °F 25.6 °F 29.92 in Calm   3.1 mph 52.6% 0.00 in W/m2
19:04 41.5 °F 25.7 °F 29.91 in Calm   3.1 mph 53% 0.00 in W/m2
19:09 41.4 °F 25.7 °F 29.92 in Calm   1.3 mph 53.2% 0.00 in W/m2
19:14 41.1 °F 25.7 °F 29.91 in Calm   1.3 mph 54% 0.00 in W/m2
19:19 40.9 °F 26.1 °F 29.91 in Calm   1.3 mph 55.4% 0.00 in W/m2
19:24 40.6 °F 26.2 °F 29.91 in Calm   1.3 mph 56% 0.00 in W/m2
19:29 40.6 °F 26.4 °F 29.91 in Calm   1.3 mph 56.4% 0.00 in W/m2
19:34 40.5 °F 26.6 °F 29.91 in Calm   1.3 mph 57.4% 0.00 in W/m2
19:39 40.3 °F 26.8 °F 29.91 in Calm   4.4 mph 58.3% 0.00 in W/m2
19:44 40.3 °F 27.2 °F 29.91 in SE 0.7 mph 6.1 mph 59.3% 0.00 in W/m2
19:49 40.3 °F 27.8 °F 29.91 in SE 0.5 mph 6.1 mph 60.7% 0.00 in W/m2
19:54 40.3 °F 28.1 °F 29.91 in SE 0.9 mph 6.1 mph 61.4% 0.00 in W/m2
19:59 40.4 °F 28.6 °F 29.91 in East 0.4 mph 6.1 mph 62.4% 0.00 in W/m2
20:04 40.6 °F 29.2 °F 29.91 in ENE 3.4 mph 13.5 mph 63.6% 0.00 in W/m2
20:09 40.6 °F 29.7 °F 29.90 in ENE 3.6 mph 13.5 mph 64.9% 0.00 in W/m2
20:14 40.8 °F 30.3 °F 29.90 in East 1.4 mph 13.5 mph 66% 0.00 in W/m2
20:19 40.6 °F 30.6 °F 29.90 in East 4.1 mph 16.1 mph 67.2% 0.00 in W/m2
20:24 40.5 °F 31.1 °F 29.90 in East 2.6 mph 16.1 mph 69% 0.00 in W/m2
20:29 40.4 °F 31.6 °F 29.90 in ENE 2.7 mph 16.1 mph 70.7% 0.00 in W/m2
20:34 40 °F 31.5 °F 29.90 in NE 2.2 mph 11.8 mph 71.4% 0.00 in W/m2
20:39 39.7 °F 31.6 °F 29.90 in NE 1.1 mph 11.8 mph 72.4% 0.00 in W/m2
20:44 39.5 °F 31.8 °F 29.89 in NE 1.3 mph 7.4 mph 73.7% 0.00 in W/m2
20:49 39.2 °F 31.8 °F 29.89 in NNE 1.6 mph 8.7 mph 74.5% 0.00 in W/m2
20:50 39.2 °F 31.9 °F 29.89 in Calm   8.7 mph 75% 0.00 in W/m2
Gosport, Indiana, USA
Compliments of Weather Underground - 4 mb